sensor_id;sensor_type;location;lat;lon;timestamp;pressure;altitude;pressure_sealevel;temperature;humidity
64064;BME280;50314;50.618;10.642;2022-07-17T00:02:06;97628.16;;;22.33;22.53
64064;BME280;50314;50.618;10.642;2022-07-17T00:04:32;97625.59;;;22.32;22.77
64064;BME280;50314;50.618;10.642;2022-07-17T00:06:57;97617.72;;;22.30;22.87
64064;BME280;50314;50.618;10.642;2022-07-17T00:09:22;97632.16;;;22.29;23.07
64064;BME280;50314;50.618;10.642;2022-07-17T00:11:48;97629.59;;;22.27;23.13
64064;BME280;50314;50.618;10.642;2022-07-17T00:14:13;97631.63;;;22.25;22.88
64064;BME280;50314;50.618;10.642;2022-07-17T00:16:39;97631.63;;;22.25;23.02
64064;BME280;50314;50.618;10.642;2022-07-17T00:19:04;97632.78;;;22.23;22.79
64064;BME280;50314;50.618;10.642;2022-07-17T00:21:30;97635.81;;;22.20;23.08
64064;BME280;50314;50.618;10.642;2022-07-17T00:23:55;97641.16;;;22.20;23.08
64064;BME280;50314;50.618;10.642;2022-07-17T00:26:20;97636.13;;;22.17;22.86
64064;BME280;50314;50.618;10.642;2022-07-17T00:28:46;97636.31;;;22.15;23.10
64064;BME280;50314;50.618;10.642;2022-07-17T00:31:11;97637.28;;;22.14;23.17
64064;BME280;50314;50.618;10.642;2022-07-17T00:33:37;97634.78;;;22.13;23.22
64064;BME280;50314;50.618;10.642;2022-07-17T00:36:02;97633.28;;;22.10;23.03
64064;BME280;50314;50.618;10.642;2022-07-17T00:38:28;97637.13;;;22.08;23.02
64064;BME280;50314;50.618;10.642;2022-07-17T00:40:55;97634.28;;;22.09;23.00
64064;BME280;50314;50.618;10.642;2022-07-17T00:43:20;97642.47;;;21.99;23.27
64064;BME280;50314;50.618;10.642;2022-07-17T00:45:46;97641.97;;;22.04;23.00
64064;BME280;50314;50.618;10.642;2022-07-17T00:48:19;97642.16;;;22.02;22.98
64064;BME280;50314;50.618;10.642;2022-07-17T00:50:44;97646.81;;;22.00;23.03
64064;BME280;50314;50.618;10.642;2022-07-17T00:53:10;97645.28;;;21.98;23.07
64064;BME280;50314;50.618;10.642;2022-07-17T00:55:36;97649.16;;;21.95;23.31
64064;BME280;50314;50.618;10.642;2022-07-17T00:58:03;97649.31;;;21.94;23.18
64064;BME280;50314;50.618;10.642;2022-07-17T01:00:29;97644.97;;;21.93;23.20
64064;BME280;50314;50.618;10.642;2022-07-17T01:02:55;97651.34;;;21.92;23.04
64064;BME280;50314;50.618;10.642;2022-07-17T01:05:22;97644.44;;;21.89;23.32
64064;BME280;50314;50.618;10.642;2022-07-17T01:07:48;97650.13;;;21.86;23.07
64064;BME280;50314;50.618;10.642;2022-07-17T01:10:15;97651.97;;;21.86;23.04
64064;BME280;50314;50.618;10.642;2022-07-17T01:12:47;97653.31;;;21.81;23.14
64064;BME280;50314;50.618;10.642;2022-07-17T01:15:14;97646.94;;;21.83;23.35
64064;BME280;50314;50.618;10.642;2022-07-17T01:17:40;97650.78;;;21.80;23.44
64064;BME280;50314;50.618;10.642;2022-07-17T01:20:08;97657.97;;;21.79;23.35
64064;BME280;50314;50.618;10.642;2022-07-17T01:22:48;97651.56;;;21.72;23.63
64064;BME280;50314;50.618;10.642;2022-07-17T01:25:15;97646.75;;;21.76;23.39
64064;BME280;50314;50.618;10.642;2022-07-17T01:27:41;97644.34;;;21.73;23.27
64064;BME280;50314;50.618;10.642;2022-07-17T01:30:08;97645.34;;;21.72;23.45
64064;BME280;50314;50.618;10.642;2022-07-17T01:32:34;97650.88;;;21.70;23.28
64064;BME280;50314;50.618;10.642;2022-07-17T01:35:01;97642.16;;;21.68;23.36
64064;BME280;50314;50.618;10.642;2022-07-17T01:37:27;97649.34;;;21.68;23.39
64064;BME280;50314;50.618;10.642;2022-07-17T01:39:53;97646.84;;;21.66;23.56
64064;BME280;50314;50.618;10.642;2022-07-17T01:42:19;97654.03;;;21.66;23.35
64064;BME280;50314;50.618;10.642;2022-07-17T01:44:44;97644.31;;;21.65;23.39
64064;BME280;50314;50.618;10.642;2022-07-17T01:47:13;97649.16;;;21.61;23.47
64064;BME280;50314;50.618;10.642;2022-07-17T01:49:46;97644.78;;;21.60;23.33
64064;BME280;50314;50.618;10.642;2022-07-17T01:52:11;97646.63;;;21.59;23.46
64064;BME280;50314;50.618;10.642;2022-07-17T01:54:37;97639.75;;;21.57;23.24
64064;BME280;50314;50.618;10.642;2022-07-17T01:57:02;97636.22;;;21.56;23.33
64064;BME280;50314;50.618;10.642;2022-07-17T01:59:28;97642.59;;;21.55;23.41
64064;BME280;50314;50.618;10.642;2022-07-17T02:01:53;97641.06;;;21.53;23.46
64064;BME280;50314;50.618;10.642;2022-07-17T02:04:19;97637.56;;;21.52;23.39
64064;BME280;50314;50.618;10.642;2022-07-17T02:06:44;97638.72;;;21.50;23.40
64064;BME280;50314;50.618;10.642;2022-07-17T02:09:09;97632.53;;;21.49;23.41
64064;BME280;50314;50.618;10.642;2022-07-17T02:11:35;97638.06;;;21.48;23.47
64064;BME280;50314;50.618;10.642;2022-07-17T02:14:00;97639.88;;;21.47;23.59
64064;BME280;50314;50.618;10.642;2022-07-17T02:16:26;97638.19;;;21.46;23.27
64064;BME280;50314;50.618;10.642;2022-07-17T02:18:51;97642.88;;;21.44;23.59
64064;BME280;50314;50.618;10.642;2022-07-17T02:21:16;97644.88;;;21.42;23.36
64064;BME280;50314;50.618;10.642;2022-07-17T02:23:42;97636.84;;;21.42;23.52
64064;BME280;50314;50.618;10.642;2022-07-17T02:26:07;97650.38;;;21.41;23.50
64064;BME280;50314;50.618;10.642;2022-07-17T02:28:34;97649.53;;;21.40;23.39
64064;BME280;50314;50.618;10.642;2022-07-17T02:30:59;97650.56;;;21.39;23.27
64064;BME280;50314;50.618;10.642;2022-07-17T02:33:25;97648.06;;;21.38;23.40
64064;BME280;50314;50.618;10.642;2022-07-17T02:35:50;97656.09;;;21.38;23.51
64064;BME280;50314;50.618;10.642;2022-07-17T02:38:15;97655.41;;;21.35;23.44
64064;BME280;50314;50.618;10.642;2022-07-17T02:40:41;97659.91;;;21.35;23.42
64064;BME280;50314;50.618;10.642;2022-07-17T02:43:07;97657.38;;;21.33;23.56
64064;BME280;50314;50.618;10.642;2022-07-17T02:45:32;97657.56;;;21.32;23.46
64064;BME280;50314;50.618;10.642;2022-07-17T02:47:58;97660.22;;;21.32;23.46
64064;BME280;50314;50.618;10.642;2022-07-17T02:50:23;97662.22;;;21.30;23.49
64064;BME280;50314;50.618;10.642;2022-07-17T02:52:49;97651.50;;;21.30;23.46
64064;BME280;50314;50.618;10.642;2022-07-17T02:55:15;97653.50;;;21.28;23.58
64064;BME280;50314;50.618;10.642;2022-07-17T02:57:41;97652.47;;;21.21;23.64
64064;BME280;50314;50.618;10.642;2022-07-17T03:00:09;97653.84;;;21.25;23.54
64064;BME280;50314;50.618;10.642;2022-07-17T03:02:36;97654.66;;;21.25;23.54
64064;BME280;50314;50.618;10.642;2022-07-17T03:05:01;97655.81;;;21.23;23.59
64064;BME280;50314;50.618;10.642;2022-07-17T03:07:27;97667.53;;;21.22;23.42
64064;BME280;50314;50.618;10.642;2022-07-17T03:09:52;97668.53;;;21.21;23.81
64064;BME280;50314;50.618;10.642;2022-07-17T03:12:18;97670.53;;;21.19;23.49
64064;BME280;50314;50.618;10.642;2022-07-17T03:14:43;97667.13;;;21.17;23.44
64064;BME280;50314;50.618;10.642;2022-07-17T03:17:08;97666.28;;;21.16;23.52
64064;BME280;50314;50.618;10.642;2022-07-17T03:19:35;97665.44;;;21.16;23.60
64064;BME280;50314;50.618;10.642;2022-07-17T03:22:01;97667.44;;;21.13;23.52
64064;BME280;50314;50.618;10.642;2022-07-17T03:24:26;97660.41;;;21.12;23.55
64064;BME280;50314;50.618;10.642;2022-07-17T03:26:51;97667.78;;;21.10;23.53
64064;BME280;50314;50.618;10.642;2022-07-17T03:29:17;97663.25;;;21.11;23.51
64064;BME280;50314;50.618;10.642;2022-07-17T03:31:44;97657.06;;;21.10;23.39
64064;BME280;50314;50.618;10.642;2022-07-17T03:34:09;97665.25;;;21.09;23.68
64064;BME280;50314;50.618;10.642;2022-07-17T03:36:35;97663.56;;;21.08;23.55
64064;BME280;50314;50.618;10.642;2022-07-17T03:39:00;97653.81;;;21.07;23.65
64064;BME280;50314;50.618;10.642;2022-07-17T03:41:26;97663.88;;;21.05;23.48
64064;BME280;50314;50.618;10.642;2022-07-17T03:43:51;97662.22;;;21.04;23.63
64064;BME280;50314;50.618;10.642;2022-07-17T03:46:17;97666.69;;;21.03;23.43
64064;BME280;50314;50.618;10.642;2022-07-17T03:48:42;97670.38;;;21.02;23.52
64064;BME280;50314;50.618;10.642;2022-07-17T03:51:08;97665.84;;;21.03;23.54
64064;BME280;50314;50.618;10.642;2022-07-17T03:53:33;97665.19;;;21.01;23.66
64064;BME280;50314;50.618;10.642;2022-07-17T03:55:58;97670.53;;;21.01;23.35
64064;BME280;50314;50.618;10.642;2022-07-17T03:58:24;97672.34;;;21.00;23.51
64064;BME280;50314;50.618;10.642;2022-07-17T04:00:49;97672.53;;;20.99;23.32
64064;BME280;50314;50.618;10.642;2022-07-17T04:03:15;97678.06;;;20.97;23.63
64064;BME280;50314;50.618;10.642;2022-07-17T04:05:40;97684.38;;;20.96;23.59
64064;BME280;50314;50.618;10.642;2022-07-17T04:08:05;97678.38;;;20.94;23.59
64064;BME280;50314;50.618;10.642;2022-07-17T04:10:31;97681.03;;;20.94;23.83
64064;BME280;50314;50.618;10.642;2022-07-17T04:12:56;97678.38;;;20.94;23.22
64064;BME280;50314;50.618;10.642;2022-07-17T04:15:22;97678.38;;;20.94;23.37
64064;BME280;50314;50.618;10.642;2022-07-17T04:18:06;97672.31;;;20.92;23.74
64064;BME280;50314;50.618;10.642;2022-07-17T04:20:31;97677.84;;;20.91;23.78
64064;BME280;50314;50.618;10.642;2022-07-17T04:22:57;97679.66;;;20.90;23.55
64064;BME280;50314;50.618;10.642;2022-07-17T04:25:23;97681.34;;;20.91;23.80
64064;BME280;50314;50.618;10.642;2022-07-17T04:27:48;97684.16;;;20.89;23.66
64064;BME280;50314;50.618;10.642;2022-07-17T04:30:14;97680.66;;;20.89;23.70
64064;BME280;50314;50.618;10.642;2022-07-17T04:32:39;97683.31;;;20.89;23.60
64064;BME280;50314;50.618;10.642;2022-07-17T04:35:05;97689.69;;;20.88;23.69
64064;BME280;50314;50.618;10.642;2022-07-17T04:37:30;97683.50;;;20.87;23.64
64064;BME280;50314;50.618;10.642;2022-07-17T04:39:56;97686.16;;;20.87;23.79
64064;BME280;50314;50.618;10.642;2022-07-17T04:42:22;97690.69;;;20.87;23.77
64064;BME280;50314;50.618;10.642;2022-07-17T04:44:48;97693.38;;;20.87;23.66
64064;BME280;50314;50.618;10.642;2022-07-17T04:47:13;97692.50;;;20.86;23.67
64064;BME280;50314;50.618;10.642;2022-07-17T04:49:38;97688.16;;;20.85;23.54
64064;BME280;50314;50.618;10.642;2022-07-17T04:52:04;97700.53;;;20.86;23.69
64064;BME280;50314;50.618;10.642;2022-07-17T04:54:29;97696.19;;;20.85;23.76
64064;BME280;50314;50.618;10.642;2022-07-17T04:56:55;97698.03;;;20.85;23.77
64064;BME280;50314;50.618;10.642;2022-07-17T04:59:20;97696.19;;;20.85;23.65
64064;BME280;50314;50.618;10.642;2022-07-17T05:01:47;97695.19;;;20.86;23.62
64064;BME280;50314;50.618;10.642;2022-07-17T05:04:12;97697.03;;;20.86;23.65
64064;BME280;50314;50.618;10.642;2022-07-17T05:06:37;97702.38;;;20.86;23.75
64064;BME280;50314;50.618;10.642;2022-07-17T05:09:03;97711.94;;;20.88;23.92
64064;BME280;50314;50.618;10.642;2022-07-17T05:11:28;97707.28;;;20.91;23.95
64064;BME280;50314;50.618;10.642;2022-07-17T05:13:54;97719.81;;;20.90;24.09
64064;BME280;50314;50.618;10.642;2022-07-17T05:16:20;97710.81;;;20.91;24.10
64064;BME280;50314;50.618;10.642;2022-07-17T05:18:45;97711.63;;;20.92;24.14
64064;BME280;50314;50.618;10.642;2022-07-17T05:21:11;97714.16;;;20.93;24.14
64064;BME280;50314;50.618;10.642;2022-07-17T05:23:36;97718.34;;;20.96;24.02
64064;BME280;50314;50.618;10.642;2022-07-17T05:26:02;97719.72;;;21.00;24.12
64064;BME280;50314;50.618;10.642;2022-07-17T05:28:27;97710.53;;;21.02;24.24
64064;BME280;50314;50.618;10.642;2022-07-17T05:30:53;97710.06;;;21.07;24.01
64064;BME280;50314;50.618;10.642;2022-07-17T05:33:18;97711.59;;;21.09;24.09
64064;BME280;50314;50.618;10.642;2022-07-17T05:35:43;97712.00;;;21.15;24.17
64064;BME280;50314;50.618;10.642;2022-07-17T05:38:10;97711.69;;;21.18;24.11
64064;BME280;50314;50.618;10.642;2022-07-17T05:40:35;97715.75;;;21.22;24.04
64064;BME280;50314;50.618;10.642;2022-07-17T05:43:00;97719.78;;;21.26;23.99
64064;BME280;50314;50.618;10.642;2022-07-17T05:45:26;97721.03;;;21.31;24.07
64064;BME280;50314;50.618;10.642;2022-07-17T05:47:51;97724.22;;;21.35;23.84
64064;BME280;50314;50.618;10.642;2022-07-17T05:50:17;97722.06;;;21.39;23.91
64064;BME280;50314;50.618;10.642;2022-07-17T05:52:42;97726.94;;;21.43;23.86
64064;BME280;50314;50.618;10.642;2022-07-17T05:55:07;97722.09;;;21.47;23.96
64064;BME280;50314;50.618;10.642;2022-07-17T05:57:34;97725.16;;;21.52;23.94
64064;BME280;50314;50.618;10.642;2022-07-17T05:59:59;97715.81;;;21.56;23.75
64064;BME280;50314;50.618;10.642;2022-07-17T06:02:25;97723.69;;;21.57;23.06
64064;BME280;50314;50.618;10.642;2022-07-17T06:04:50;97724.38;;;21.59;23.21
64064;BME280;50314;50.618;10.642;2022-07-17T06:07:16;97717.69;;;21.64;23.34
64064;BME280;50314;50.618;10.642;2022-07-17T06:09:41;97722.72;;;21.67;23.15
64064;BME280;50314;50.618;10.642;2022-07-17T06:12:06;97715.06;;;21.72;23.40
64064;BME280;50314;50.618;10.642;2022-07-17T06:14:32;97716.44;;;21.76;23.30
64064;BME280;50314;50.618;10.642;2022-07-17T06:16:57;97714.13;;;21.81;23.09
64064;BME280;50314;50.618;10.642;2022-07-17T06:19:23;97717.16;;;21.86;23.27
64064;BME280;50314;50.618;10.642;2022-07-17T06:21:48;97718.19;;;21.93;23.43
64064;BME280;50314;50.618;10.642;2022-07-17T06:24:13;97712.19;;;21.99;23.24
64064;BME280;50314;50.618;10.642;2022-07-17T06:26:39;97709.03;;;22.04;23.31
64064;BME280;50314;50.618;10.642;2022-07-17T06:29:04;97708.56;;;22.09;23.26
64064;BME280;50314;50.618;10.642;2022-07-17T06:31:30;97707.72;;;22.16;23.03
64064;BME280;50314;50.618;10.642;2022-07-17T06:33:55;97713.28;;;22.23;23.05
64064;BME280;50314;50.618;10.642;2022-07-17T06:36:20;97710.78;;;22.29;23.36
64064;BME280;50314;50.618;10.642;2022-07-17T06:38:46;97716.53;;;22.35;23.00
64064;BME280;50314;50.618;10.642;2022-07-17T06:41:11;97711.03;;;22.44;23.05
64064;BME280;50314;50.618;10.642;2022-07-17T06:43:37;97715.72;;;22.50;23.28
64064;BME280;50314;50.618;10.642;2022-07-17T06:46:02;97712.22;;;22.58;23.35
64064;BME280;50314;50.618;10.642;2022-07-17T06:48:27;97714.09;;;22.66;23.27
64064;BME280;50314;50.618;10.642;2022-07-17T06:50:53;97717.78;;;22.73;23.08
64064;BME280;50314;50.618;10.642;2022-07-17T06:53:18;97732.22;;;22.80;22.92
64064;BME280;50314;50.618;10.642;2022-07-17T06:55:44;97748.38;;;22.88;22.82
64064;BME280;50314;50.618;10.642;2022-07-17T06:58:09;97759.13;;;22.96;23.25
64064;BME280;50314;50.618;10.642;2022-07-17T07:00:34;97755.75;;;23.03;23.17
64064;BME280;50314;50.618;10.642;2022-07-17T07:03:00;97755.78;;;23.11;22.75
64064;BME280;50314;50.618;10.642;2022-07-17T07:05:25;97758.44;;;23.19;23.29
64064;BME280;50314;50.618;10.642;2022-07-17T07:07:51;97757.44;;;23.28;22.69
64064;BME280;50314;50.618;10.642;2022-07-17T07:10:16;97750.38;;;23.35;22.88
64064;BME280;50314;50.618;10.642;2022-07-17T07:12:42;97741.34;;;23.44;22.76
64064;BME280;50314;50.618;10.642;2022-07-17T07:15:08;97745.03;;;23.52;22.85
64064;BME280;50314;50.618;10.642;2022-07-17T07:17:35;97742.31;;;23.60;22.61
64064;BME280;50314;50.618;10.642;2022-07-17T07:20:04;97738.94;;;23.66;22.23
64064;BME280;50314;50.618;10.642;2022-07-17T07:22:30;97740.59;;;23.75;22.71
64064;BME280;50314;50.618;10.642;2022-07-17T07:24:56;97745.13;;;23.83;22.61
64064;BME280;50314;50.618;10.642;2022-07-17T07:27:21;97737.03;;;23.91;22.56
64064;BME280;50314;50.618;10.642;2022-07-17T07:29:47;97735.16;;;24.00;22.32
64064;BME280;50314;50.618;10.642;2022-07-17T07:32:12;97728.75;;;24.09;22.01
64064;BME280;50314;50.618;10.642;2022-07-17T07:34:38;97730.41;;;24.18;22.35
64064;BME280;50314;50.618;10.642;2022-07-17T07:37:03;97722.94;;;24.28;21.99
64064;BME280;50314;50.618;10.642;2022-07-17T07:39:29;97714.13;;;24.34;21.72
64064;BME280;50314;50.618;10.642;2022-07-17T07:41:55;97714.94;;;24.43;21.22
64064;BME280;50314;50.618;10.642;2022-07-17T07:44:20;97709.00;;;24.48;19.69
64064;BME280;50314;50.618;10.642;2022-07-17T07:46:45;97720.28;;;24.51;19.11
64064;BME280;50314;50.618;10.642;2022-07-17T07:49:11;97711.88;;;24.54;18.83
64064;BME280;50314;50.618;10.642;2022-07-17T07:51:36;97712.34;;;24.58;18.46
64064;BME280;50314;50.618;10.642;2022-07-17T07:54:02;97717.22;;;24.63;18.21
64064;BME280;50314;50.618;10.642;2022-07-17T07:56:27;97722.88;;;24.68;17.99
64064;BME280;50314;50.618;10.642;2022-07-17T07:58:53;97712.59;;;24.71;17.70
64064;BME280;50314;50.618;10.642;2022-07-17T08:01:18;97713.94;;;24.75;17.83
64064;BME280;50314;50.618;10.642;2022-07-17T08:03:43;97715.72;;;24.83;17.48
64064;BME280;50314;50.618;10.642;2022-07-17T08:06:09;97721.22;;;24.90;17.54
64064;BME280;50314;50.618;10.642;2022-07-17T08:08:34;97708.03;;;24.95;17.23
64064;BME280;50314;50.618;10.642;2022-07-17T08:11:00;97705.66;;;25.00;16.97
64064;BME280;50314;50.618;10.642;2022-07-17T08:13:25;97706.63;;;25.07;16.89
64064;BME280;50314;50.618;10.642;2022-07-17T08:15:51;97705.72;;;25.15;16.99
64064;BME280;50314;50.618;10.642;2022-07-17T08:18:16;97707.31;;;25.24;16.96
64064;BME280;50314;50.618;10.642;2022-07-17T08:20:42;97706.22;;;25.33;16.50
64064;BME280;50314;50.618;10.642;2022-07-17T08:23:08;97706.81;;;25.43;16.42
64064;BME280;50314;50.618;10.642;2022-07-17T08:25:34;97705.81;;;25.59;16.65
64064;BME280;50314;50.618;10.642;2022-07-17T08:28:00;97711.56;;;26.15;16.19
64064;BME280;50314;50.618;10.642;2022-07-17T08:30:25;97707.31;;;27.00;15.54
64064;BME280;50314;50.618;10.642;2022-07-17T08:32:51;97708.34;;;27.77;14.69
64064;BME280;50314;50.618;10.642;2022-07-17T08:35:16;97708.28;;;28.46;14.03
64064;BME280;50314;50.618;10.642;2022-07-17T08:37:46;97704.22;;;29.10;13.11
64064;BME280;50314;50.618;10.642;2022-07-17T08:40:27;97708.16;;;29.67;12.67
64064;BME280;50314;50.618;10.642;2022-07-17T08:42:55;97707.38;;;30.25;12.59
64064;BME280;50314;50.618;10.642;2022-07-17T08:45:21;97704.47;;;30.72;12.34
64064;BME280;50314;50.618;10.642;2022-07-17T08:47:47;97705.22;;;31.17;11.80
64064;BME280;50314;50.618;10.642;2022-07-17T08:50:13;97707.59;;;31.57;11.58
64064;BME280;50314;50.618;10.642;2022-07-17T08:52:41;97715.56;;;31.95;11.22
64064;BME280;50314;50.618;10.642;2022-07-17T08:55:13;97707.22;;;32.27;10.85
64064;BME280;50314;50.618;10.642;2022-07-17T08:57:41;97703.00;;;32.61;10.74
64064;BME280;50314;50.618;10.642;2022-07-17T09:00:08;97703.00;;;32.91;10.90
64064;BME280;50314;50.618;10.642;2022-07-17T09:02:36;97697.47;;;33.21;10.68
64064;BME280;50314;50.618;10.642;2022-07-17T09:05:02;97701.22;;;33.51;10.55
64064;BME280;50314;50.618;10.642;2022-07-17T09:07:28;97696.34;;;33.76;10.51
64064;BME280;50314;50.618;10.642;2022-07-17T09:09:53;97701.19;;;33.98;10.30
64064;BME280;50314;50.618;10.642;2022-07-17T09:12:28;97698.94;;;33.83;9.57
64064;BME280;50314;50.618;10.642;2022-07-17T09:14:54;97691.78;;;33.11;10.31
64064;BME280;50314;50.618;10.642;2022-07-17T09:17:20;97682.38;;;32.53;10.63
64064;BME280;50314;50.618;10.642;2022-07-17T09:19:46;97689.09;;;32.02;10.83
64064;BME280;50314;50.618;10.642;2022-07-17T09:22:20;97695.44;;;31.53;11.13
64064;BME280;50314;50.618;10.642;2022-07-17T09:24:54;97679.94;;;31.10;11.43
64064;BME280;50314;50.618;10.642;2022-07-17T09:32:27;97675.88;;;30.17;12.28
64064;BME280;50314;50.618;10.642;2022-07-17T09:34:54;97684.94;;;29.91;12.51
64064;BME280;50314;50.618;10.642;2022-07-17T09:37:25;97682.50;;;29.70;12.35
64064;BME280;50314;50.618;10.642;2022-07-17T09:39:51;97676.47;;;29.55;12.42
64064;BME280;50314;50.618;10.642;2022-07-17T09:42:29;97678.78;;;29.31;12.91
64064;BME280;50314;50.618;10.642;2022-07-17T09:44:57;97674.63;;;29.22;12.53
64064;BME280;50314;50.618;10.642;2022-07-17T09:47:26;97668.56;;;29.07;12.56
64064;BME280;50314;50.618;10.642;2022-07-17T09:49:53;97670.25;;;28.94;13.53
64064;BME280;50314;50.618;10.642;2022-07-17T09:52:19;97665.19;;;28.85;13.35
64064;BME280;50314;50.618;10.642;2022-07-17T09:54:47;97673.09;;;28.73;13.32
64064;BME280;50314;50.618;10.642;2022-07-17T09:57:14;97668.94;;;28.64;13.76
64064;BME280;50314;50.618;10.642;2022-07-17T09:59:42;97659.34;;;28.54;12.65
64064;BME280;50314;50.618;10.642;2022-07-17T10:02:09;97659.31;;;28.48;13.43
64064;BME280;50314;50.618;10.642;2022-07-17T10:04:35;97654.91;;;28.40;13.46
64064;BME280;50314;50.618;10.642;2022-07-17T10:07:04;97659.25;;;28.34;13.85
64064;BME280;50314;50.618;10.642;2022-07-17T10:09:32;97649.22;;;28.28;13.22
64064;BME280;50314;50.618;10.642;2022-07-17T10:11:57;97647.56;;;28.21;13.53
64064;BME280;50314;50.618;10.642;2022-07-17T10:14:23;97651.72;;;28.17;13.59
64064;BME280;50314;50.618;10.642;2022-07-17T10:16:49;97646.47;;;28.08;13.72
64064;BME280;50314;50.618;10.642;2022-07-17T10:19:22;97654.56;;;28.02;13.99
64064;BME280;50314;50.618;10.642;2022-07-17T10:21:57;97663.94;;;27.99;14.22
64064;BME280;50314;50.618;10.642;2022-07-17T10:24:23;97660.19;;;28.00;14.20
64064;BME280;50314;50.618;10.642;2022-07-17T10:26:48;97659.91;;;27.95;14.31
64064;BME280;50314;50.618;10.642;2022-07-17T10:32:28;97663.84;;;27.86;14.10
64064;BME280;50314;50.618;10.642;2022-07-17T10:37:27;97669.84;;;27.81;14.78
64064;BME280;50314;50.618;10.642;2022-07-17T10:40:00;97669.81;;;27.75;14.38
64064;BME280;50314;50.618;10.642;2022-07-17T10:43:03;97670.59;;;27.69;13.65
64064;BME280;50314;50.618;10.642;2022-07-17T10:48:09;97663.34;;;27.69;14.15
64064;BME280;50314;50.618;10.642;2022-07-17T10:50:43;97662.06;;;27.65;14.51
64064;BME280;50314;50.618;10.642;2022-07-17T10:53:14;97669.78;;;27.68;14.80
64064;BME280;50314;50.618;10.642;2022-07-17T10:55:44;97657.50;;;27.66;13.60
64064;BME280;50314;50.618;10.642;2022-07-17T10:58:31;97658.47;;;27.58;13.46
64064;BME280;50314;50.618;10.642;2022-07-17T11:06:15;97650.56;;;27.56;13.30
64064;BME280;50314;50.618;10.642;2022-07-17T11:08:43;97643.94;;;27.59;14.50
64064;BME280;50314;50.618;10.642;2022-07-17T11:11:09;97639.38;;;27.59;14.31
64064;BME280;50314;50.618;10.642;2022-07-17T11:13:34;97636.00;;;27.57;14.31
64064;BME280;50314;50.618;10.642;2022-07-17T11:16:00;97641.25;;;27.59;14.35
64064;BME280;50314;50.618;10.642;2022-07-17T11:18:25;97636.66;;;27.59;14.97
64064;BME280;50314;50.618;10.642;2022-07-17T11:21:00;97640.59;;;27.57;14.41
64064;BME280;50314;50.618;10.642;2022-07-17T11:23:29;97633.94;;;27.59;14.64
64064;BME280;50314;50.618;10.642;2022-07-17T11:25:57;97637.50;;;27.60;14.70
64064;BME280;50314;50.618;10.642;2022-07-17T11:31:25;97636.00;;;27.57;14.95
64064;BME280;50314;50.618;10.642;2022-07-17T11:33:59;97624.13;;;27.58;14.77
64064;BME280;50314;50.618;10.642;2022-07-17T11:38:55;97630.19;;;27.60;14.44
64064;BME280;50314;50.618;10.642;2022-07-17T11:41:21;97623.75;;;27.61;14.68
64064;BME280;50314;50.618;10.642;2022-07-17T11:43:57;97626.44;;;27.61;14.22
64064;BME280;50314;50.618;10.642;2022-07-17T11:46:22;97622.09;;;27.60;14.48
64064;BME280;50314;50.618;10.642;2022-07-17T11:48:48;97624.78;;;27.60;14.18
64064;BME280;50314;50.618;10.642;2022-07-17T11:51:13;97631.84;;;27.61;14.54
64064;BME280;50314;50.618;10.642;2022-07-17T11:53:39;97622.91;;;27.61;15.15
64064;BME280;50314;50.618;10.642;2022-07-17T11:56:05;97621.03;;;27.61;14.77
64064;BME280;50314;50.618;10.642;2022-07-17T11:58:45;97622.03;;;27.54;15.11
64064;BME280;50314;50.618;10.642;2022-07-17T12:01:12;97611.47;;;27.59;15.32
64064;BME280;50314;50.618;10.642;2022-07-17T12:03:38;97615.00;;;27.59;15.05
64064;BME280;50314;50.618;10.642;2022-07-17T12:06:04;97620.41;;;27.59;14.89
64064;BME280;50314;50.618;10.642;2022-07-17T12:08:29;97615.19;;;27.58;14.93
64064;BME280;50314;50.618;10.642;2022-07-17T12:11:02;97626.41;;;27.55;15.18
64064;BME280;50314;50.618;10.642;2022-07-17T12:13:44;97615.53;;;27.48;15.47
64064;BME280;50314;50.618;10.642;2022-07-17T12:16:38;97605.13;;;27.45;15.54
64064;BME280;50314;50.618;10.642;2022-07-17T12:21:32;97609.75;;;27.51;15.08
64064;BME280;50314;50.618;10.642;2022-07-17T12:24:01;97612.44;;;27.51;15.31
64064;BME280;50314;50.618;10.642;2022-07-17T12:26:27;97613.09;;;27.53;14.83
64064;BME280;50314;50.618;10.642;2022-07-17T12:28:53;97611.44;;;27.52;15.16
64064;BME280;50314;50.618;10.642;2022-07-17T12:31:19;97606.03;;;27.52;15.11
64064;BME280;50314;50.618;10.642;2022-07-17T12:33:45;97608.53;;;27.54;15.34
64064;BME280;50314;50.618;10.642;2022-07-17T12:36:11;97602.28;;;27.53;14.94
64064;BME280;50314;50.618;10.642;2022-07-17T12:38:37;97604.34;;;27.51;14.69
64064;BME280;50314;50.618;10.642;2022-07-17T12:41:02;97596.44;;;27.50;14.98
64064;BME280;50314;50.618;10.642;2022-07-17T12:43:29;97597.47;;;27.49;14.26
64064;BME280;50314;50.618;10.642;2022-07-17T12:45:55;97592.91;;;27.49;14.93
64064;BME280;50314;50.618;10.642;2022-07-17T12:48:21;97593.88;;;27.48;15.04
64064;BME280;50314;50.618;10.642;2022-07-17T12:50:46;97588.03;;;27.45;14.97
64064;BME280;50314;50.618;10.642;2022-07-17T12:53:12;97588.91;;;27.45;14.84
64064;BME280;50314;50.618;10.642;2022-07-17T12:55:38;97594.31;;;27.45;15.54
64064;BME280;50314;50.618;10.642;2022-07-17T12:58:04;97596.81;;;27.47;15.34
64064;BME280;50314;50.618;10.642;2022-07-17T13:00:30;97603.03;;;27.47;15.38
64064;BME280;50314;50.618;10.642;2022-07-17T13:02:56;97591.59;;;27.45;15.08
64064;BME280;50314;50.618;10.642;2022-07-17T13:05:21;97582.44;;;27.46;15.56
64064;BME280;50314;50.618;10.642;2022-07-17T13:07:47;97585.16;;;27.46;15.66
64064;BME280;50314;50.618;10.642;2022-07-17T13:10:12;97582.63;;;27.45;15.48
64064;BME280;50314;50.618;10.642;2022-07-17T13:12:37;97595.97;;;27.46;15.35
64064;BME280;50314;50.618;10.642;2022-07-17T13:15:04;97585.34;;;27.45;15.67